Time;durP1;ratioP1;P1;durP2;ratioP2;P2;SDS_P1;SDS_P2;PMS_P1;PMS_P2;Temp;Humidity;BMP_temperature;BMP_pressure;BME280_temperature;BME280_humidity;BME280_pressure;Samples;Min_cycle;Max_cycle;Signal;HPM_P1;HPM_P2
2022/05/28 00:01:20;;;;;;;0.50;0.50;;;22.20;61.20;;;;;;5084898;28;20162;-41
2022/05/28 00:03:46;;;;;;;0.52;0.52;;;22.20;61.50;;;;;;5085013;28;20024;-40
2022/05/28 00:06:18;;;;;;;0.80;0.70;;;22.20;61.40;;;;;;5085060;28;20021;-41
2022/05/28 00:08:44;;;;;;;0.60;0.60;;;22.20;61.20;;;;;;5084758;28;20464;-40
2022/05/28 00:11:31;;;;;;;0.50;0.50;;;22.20;61.10;;;;;;5084928;28;20024;-40
2022/05/28 00:13:58;;;;;;;0.50;0.50;;;22.20;61.00;;;;;;5103576;28;20038;-41
2022/05/28 00:16:24;;;;;;;0.50;0.50;;;22.20;60.90;;;;;;5105074;28;20045;-41
2022/05/28 00:18:52;;;;;;;0.60;0.60;;;22.20;60.60;;;;;;5104439;28;20048;-41
2022/05/28 00:21:18;;;;;;;0.95;0.60;;;22.20;59.70;;;;;;5104695;28;20130;-42
2022/05/28 00:23:44;;;;;;;0.50;0.50;;;22.20;59.70;;;;;;5110849;28;20106;-40
2022/05/28 00:26:11;;;;;;;0.45;0.45;;;22.30;60.20;;;;;;5108434;28;20036;-40
2022/05/28 00:28:37;;;;;;;0.50;0.50;;;22.30;60.30;;;;;;5105803;28;20559;-40
2022/05/28 00:31:03;;;;;;;0.52;0.52;;;22.30;60.30;;;;;;5108555;28;20043;-40
2022/05/28 00:33:30;;;;;;;0.52;0.52;;;22.30;60.30;;;;;;5107069;28;20034;-42
2022/05/28 00:35:57;;;;;;;0.82;0.60;;;22.30;60.20;;;;;;5105470;28;20042;-42
2022/05/28 00:38:24;;;;;;;0.80;0.63;;;22.30;60.20;;;;;;5111320;28;20028;-41
2022/05/28 00:40:53;;;;;;;0.40;0.40;;;22.30;60.10;;;;;;5105066;28;20417;-40
2022/05/28 00:43:19;;;;;;;0.57;0.57;;;22.20;59.90;;;;;;5106865;28;21747;-41
2022/05/28 00:45:46;;;;;;;0.60;0.60;;;22.30;59.90;;;;;;5109234;28;20100;-40
2022/05/28 00:48:12;;;;;;;0.50;0.50;;;22.20;59.80;;;;;;5111798;28;20012;-40
2022/05/28 00:50:39;;;;;;;0.50;0.50;;;22.20;59.70;;;;;;5107290;28;20092;-40
2022/05/28 00:53:05;;;;;;;0.43;0.43;;;22.30;59.70;;;;;;5112216;28;20387;-41
2022/05/28 00:55:32;;;;;;;0.60;0.53;;;22.30;59.70;;;;;;5106579;28;20028;-42
2022/05/28 00:57:59;;;;;;;0.60;0.60;;;22.30;59.60;;;;;;5104200;28;21062;-41
2022/05/28 01:00:25;;;;;;;0.70;0.63;;;22.30;59.50;;;;;;5097432;28;20040;-39
2022/05/28 01:02:57;;;;;;;0.80;0.60;;;22.30;59.50;;;;;;5083874;28;20028;-41
2022/05/28 01:05:33;;;;;;;0.50;0.50;;;22.30;59.40;;;;;;5115253;28;20032;-40
2022/05/28 01:08:15;;;;;;;0.50;0.50;;;22.30;59.30;;;;;;5103295;28;20024;-40
2022/05/28 01:11:10;;;;;;;0.40;0.40;;;22.30;59.30;;;;;;5103603;28;20028;-41
2022/05/28 01:13:57;;;;;;;0.50;0.50;;;22.30;59.20;;;;;;5104016;28;20032;-40
2022/05/28 01:16:34;;;;;;;0.50;0.50;;;22.30;59.20;;;;;;5102389;28;20032;-43
2022/05/28 01:19:38;;;;;;;0.40;0.40;;;22.30;59.20;;;;;;5123145;28;20044;-40
2022/05/28 01:22:23;;;;;;;0.40;0.40;;;22.30;59.10;;;;;;5124298;28;20293;-40
2022/05/28 01:24:52;;;;;;;0.77;0.50;;;22.30;59.10;;;;;;5111409;28;20045;-42
2022/05/28 01:27:39;;;;;;;0.45;0.45;;;22.30;59.00;;;;;;5109947;28;20031;-42
2022/05/28 01:30:07;;;;;;;0.50;0.47;;;22.30;59.10;;;;;;5104566;28;20092;-40
2022/05/28 01:32:33;;;;;;;0.50;0.50;;;22.30;58.90;;;;;;5109976;28;20035;-40
2022/05/28 01:35:00;;;;;;;0.47;0.40;;;22.30;58.90;;;;;;5104708;28;20027;-41
2022/05/28 01:37:26;;;;;;;0.40;0.40;;;22.30;58.90;;;;;;5105879;28;20039;-43
2022/05/28 01:39:52;;;;;;;0.57;0.57;;;22.30;58.90;;;;;;5097805;28;20036;-42
2022/05/28 02:20:40;;;;;;;5.25;0.50;;;22.10;61.80;;;;;;5037278;27;2014090;-40
2022/05/28 02:23:13;;;;;;;1.23;0.40;;;22.10;62.70;;;;;;5075544;28;20062;-43
2022/05/28 02:26:07;;;;;;;3.08;0.50;;;22.10;62.50;;;;;;5077387;28;20025;-43
2022/05/28 02:28:33;;;;;;;0.90;0.63;;;22.20;62.50;;;;;;5071056;28;20059;-46
2022/05/28 02:31:03;;;;;;;0.52;0.47;;;22.20;62.40;;;;;;5083994;28;20711;-44
2022/05/28 02:33:32;;;;;;;3.60;0.47;;;22.20;62.40;;;;;;5068744;28;20058;-46
2022/05/28 02:35:59;;;;;;;1.38;0.63;;;22.30;62.50;;;;;;5081727;28;20032;-46
2022/05/28 02:38:25;;;;;;;3.22;0.57;;;22.30;62.60;;;;;;5083536;28;20024;-50
2022/05/28 02:40:54;;;;;;;2.97;0.50;;;22.30;62.50;;;;;;5086968;28;20039;-45
2022/05/28 02:43:22;;;;;;;4.20;0.60;;;22.30;62.40;;;;;;5086923;28;20044;-50
2022/05/28 02:45:48;;;;;;;;;;;22.40;62.30;;;;;;5086352;28;20100;-61
2022/05/28 02:48:14;;;;;;;1.85;0.38;;;22.40;62.30;;;;;;5092355;28;19956;-51
2022/05/28 02:50:40;;;;;;;2.65;0.60;;;22.30;62.40;;;;;;5084625;28;20037;-55
2022/05/28 02:53:06;;;;;;;1.33;0.50;;;22.40;62.40;;;;;;5093613;28;20032;-62
2022/05/28 02:55:32;;;;;;;2.77;0.60;;;22.40;62.40;;;;;;5098793;28;20027;-64
2022/05/28 02:57:59;;;;;;;1.92;0.50;;;22.40;62.40;;;;;;5097027;28;20886;-65
2022/05/28 03:00:25;;;;;;;2.45;0.90;;;22.40;62.30;;;;;;5094282;28;20072;-61
2022/05/28 03:02:52;;;;;;;3.28;0.65;;;22.50;62.40;;;;;;5099967;28;20028;-61
2022/05/28 03:05:19;;;;;;;2.10;0.60;;;22.50;62.60;;;;;;5094111;28;20028;-61
2022/05/28 03:07:45;;;;;;;;;;;22.50;62.60;;;;;;5097740;28;20460;-61
2022/05/28 03:10:12;;;;;;;1.88;0.63;;;22.50;62.70;;;;;;5095301;28;19951;-59
2022/05/28 03:12:39;;;;;;;3.10;0.50;;;22.50;62.80;;;;;;5089831;28;20059;-61
2022/05/28 03:15:06;;;;;;;6.25;0.80;;;22.50;62.80;;;;;;5095891;28;20438;-59
2022/05/28 03:17:32;;;;;;;0.73;0.60;;;22.60;62.80;;;;;;5092634;28;20040;-61
2022/05/28 03:20:01;;;;;;;1.95;0.70;;;22.60;62.80;;;;;;5091934;28;20048;-58
2022/05/28 03:22:30;;;;;;;1.52;0.65;;;22.60;62.80;;;;;;5094703;28;20024;-58
2022/05/28 03:24:57;;;;;;;1.75;0.60;;;22.60;62.70;;;;;;5093933;28;20047;-59
2022/05/28 03:27:23;;;;;;;4.03;0.70;;;22.70;62.70;;;;;;5095006;28;20082;-65
2022/05/28 03:29:49;;;;;;;3.78;0.75;;;22.60;62.60;;;;;;5091352;28;20889;-63
2022/05/28 03:32:16;;;;;;;3.03;0.70;;;22.70;62.50;;;;;;5077981;28;20039;-62
2022/05/28 03:34:42;;;;;;;4.22;0.85;;;22.70;62.50;;;;;;5081616;28;20032;-64
2022/05/28 03:37:08;;;;;;;3.45;0.82;;;22.70;62.40;;;;;;5079235;28;20035;-61
2022/05/28 03:39:34;;;;;;;4.05;0.75;;;22.70;62.40;;;;;;5078813;28;20044;-62
2022/05/28 03:42:00;;;;;;;3.22;0.90;;;22.80;62.30;;;;;;5080184;28;20024;-61
2022/05/28 03:44:26;;;;;;;2.28;0.80;;;22.70;62.30;;;;;;5078854;28;20043;-61
2022/05/28 03:46:52;;;;;;;1.23;0.70;;;22.80;62.30;;;;;;5081645;28;20024;-63
2022/05/28 03:49:25;;;;;;;2.00;0.60;;;22.80;62.30;;;;;;5083668;28;20199;-63
2022/05/28 03:51:51;;;;;;;1.95;0.70;;;22.80;62.20;;;;;;5062309;28;20020;-62
2022/05/28 03:54:17;;;;;;;2.40;0.70;;;22.80;62.10;;;;;;5080931;28;20032;-62
2022/05/28 03:56:43;;;;;;;0.90;0.60;;;22.80;62.20;;;;;;5081276;28;20054;-61
2022/05/28 03:59:10;;;;;;;1.38;0.60;;;22.80;62.30;;;;;;5079846;28;20108;-62
2022/05/28 04:01:36;;;;;;;1.83;0.98;;;22.80;62.30;;;;;;5080170;28;20373;-63
2022/05/28 04:04:03;;;;;;;0.73;0.73;;;22.80;62.30;;;;;;5061204;28;20033;-64
2022/05/28 04:06:29;;;;;;;1.90;0.80;;;22.80;62.30;;;;;;5080661;28;20025;-63
2022/05/28 04:08:55;;;;;;;0.80;0.73;;;22.80;62.20;;;;;;5081167;28;20277;-67
2022/05/28 04:11:22;;;;;;;1.03;0.90;;;22.90;62.20;;;;;;5078614;28;20041;-65
2022/05/28 04:13:48;;;;;;;1.33;0.90;;;22.80;62.10;;;;;;5077422;28;20040;-61
2022/05/28 04:16:14;;;;;;;2.77;0.70;;;22.90;62.10;;;;;;5077259;28;20028;-60
2022/05/28 04:18:40;;;;;;;2.70;0.80;;;22.90;62.00;;;;;;5082116;28;20119;-61
2022/05/28 04:21:07;;;;;;;1.95;0.63;;;22.90;62.00;;;;;;5081334;28;20077;-60
2022/05/28 04:23:33;;;;;;;1.58;0.80;;;22.90;61.90;;;;;;5078167;28;20039;-62
2022/05/28 04:25:59;;;;;;;0.77;0.60;;;22.90;61.90;;;;;;5079578;28;20033;-61
2022/05/28 04:28:26;;;;;;;1.10;0.68;;;22.90;61.90;;;;;;5079105;28;20074;-61
2022/05/28 04:30:52;;;;;;;1.05;0.70;;;22.90;61.80;;;;;;5075314;28;20028;-61
2022/05/28 04:33:18;;;;;;;2.10;0.80;;;22.90;61.80;;;;;;5078916;28;20025;-63
2022/05/28 04:35:44;;;;;;;2.97;0.70;;;22.90;61.70;;;;;;5079624;28;20041;-60
2022/05/28 04:38:10;;;;;;;1.00;0.70;;;22.90;61.80;;;;;;5082593;28;20051;-62
2022/05/28 04:40:36;;;;;;;0.95;0.80;;;22.90;61.80;;;;;;5080043;28;20054;-62
2022/05/28 04:43:02;;;;;;;0.93;0.70;;;22.90;61.70;;;;;;5078423;28;20098;-59
2022/05/28 04:45:29;;;;;;;1.10;0.70;;;22.90;61.70;;;;;;5079153;28;20032;-62
2022/05/28 04:47:55;;;;;;;2.08;0.65;;;22.90;61.70;;;;;;5078780;28;20025;-62
2022/05/28 04:50:21;;;;;;;1.30;0.80;;;22.90;61.80;;;;;;5080989;28;20092;-63
2022/05/28 04:52:47;;;;;;;1.85;0.70;;;22.90;61.70;;;;;;5078586;28;20021;-63
2022/05/28 04:55:13;;;;;;;0.77;0.70;;;22.90;61.70;;;;;;5081630;28;20032;-62
2022/05/28 04:57:39;;;;;;;0.80;0.70;;;22.90;61.70;;;;;;5078140;28;20063;-61
2022/05/28 05:00:14;;;;;;;1.25;0.85;;;22.90;61.70;;;;;;5082026;28;20029;-62
2022/05/28 05:02:40;;;;;;;1.25;0.63;;;22.90;61.70;;;;;;5078934;28;20032;-61
2022/05/28 05:05:07;;;;;;;1.08;0.70;;;22.90;61.70;;;;;;5079214;28;20038;-59
2022/05/28 05:07:33;;;;;;;1.00;0.63;;;22.90;61.60;;;;;;5077327;28;20039;-60
2022/05/28 05:09:59;;;;;;;0.80;0.80;;;22.90;61.70;;;;;;5080561;28;20029;-61
2022/05/28 05:12:26;;;;;;;0.80;0.80;;;22.90;61.70;;;;;;5082887;28;20028;-60
2022/05/28 05:14:52;;;;;;;1.38;0.93;;;22.90;61.70;;;;;;5076627;28;20035;-61
2022/05/28 05:17:18;;;;;;;2.05;0.68;;;22.90;61.60;;;;;;5076855;28;20029;-61
2022/05/28 05:19:44;;;;;;;1.35;0.85;;;22.90;61.60;;;;;;5078884;28;20055;-61
2022/05/28 05:22:10;;;;;;;0.70;0.70;;;22.90;61.60;;;;;;5078339;28;20030;-63
2022/05/28 05:24:36;;;;;;;0.82;0.75;;;22.90;61.60;;;;;;5077195;28;20038;-64
2022/05/28 05:27:03;;;;;;;1.00;0.90;;;22.90;61.60;;;;;;5071856;28;20032;-65
2022/05/28 05:29:29;;;;;;;0.53;0.53;;;22.90;61.60;;;;;;5073496;28;20039;-65
2022/05/28 05:31:55;;;;;;;0.80;0.80;;;22.90;61.60;;;;;;5071111;28;20052;-66
2022/05/28 05:34:21;;;;;;;0.77;0.70;;;22.90;61.60;;;;;;5074231;28;20025;-59
2022/05/28 05:36:47;;;;;;;0.80;0.70;;;22.90;62.40;;;;;;5071725;28;20037;-60
2022/05/28 05:39:13;;;;;;;1.63;0.80;;;22.90;61.70;;;;;;5072538;28;20114;-59
2022/05/28 05:41:43;;;;;;;0.98;0.88;;;22.90;61.70;;;;;;5071968;28;22576;-58
2022/05/28 05:44:09;;;;;;;1.13;0.80;;;22.90;61.70;;;;;;5070981;28;20039;-59
2022/05/28 05:46:36;;;;;;;2.50;0.80;;;22.80;61.60;;;;;;5070886;28;20088;-63
2022/05/28 05:49:03;;;;;;;2.10;0.85;;;22.80;61.70;;;;;;5053811;28;20059;-66
2022/05/28 05:51:29;;;;;;;1.25;0.80;;;22.80;61.80;;;;;;5056480;28;22698;-63
2022/05/28 05:53:56;;;;;;;1.23;0.80;;;22.80;61.90;;;;;;5068982;28;20037;-61
2022/05/28 05:56:22;;;;;;;40.53;10.80;;;22.80;62.00;;;;;;5079179;28;20048;-49
2022/05/28 05:58:48;;;;;;;40.38;11.25;;;22.80;62.10;;;;;;5078999;28;20016;-47
2022/05/28 06:01:14;;;;;;;32.70;10.93;;;22.80;62.00;;;;;;5079535;28;20075;-47
2022/05/28 06:03:44;;;;;;;32.22;10.07;;;22.90;62.00;;;;;;5081220;28;20024;-48
2022/05/28 06:06:12;;;;;;;36.22;9.82;;;22.90;62.00;;;;;;5078445;28;20101;-48
2022/05/28 06:08:38;;;;;;;29.20;8.65;;;22.90;61.90;;;;;;5080044;28;20028;-49
2022/05/28 06:11:04;;;;;;;32.70;9.40;;;22.90;61.80;;;;;;5077716;28;20032;-48
2022/05/28 06:13:30;;;;;;;28.38;8.90;;;22.80;61.70;;;;;;5061951;28;20024;-45
2022/05/28 06:15:57;;;;;;;28.88;8.30;;;22.90;61.80;;;;;;5061242;28;20033;-45
2022/05/28 06:18:43;;;;;;;24.10;8.23;;;22.80;61.70;;;;;;5077242;28;20033;-45
2022/05/28 06:21:09;;;;;;;22.73;7.72;;;22.80;61.80;;;;;;4996312;28;20038;-49
2022/05/28 06:23:35;;;;;;;24.88;7.90;;;22.80;61.70;;;;;;4997728;28;20038;-47
2022/05/28 06:26:04;;;;;;;27.05;8.48;;;22.80;61.70;;;;;;4996473;28;20089;-46
2022/05/28 06:28:31;;;;;;;24.50;7.20;;;22.80;61.60;;;;;;4996405;28;20154;-46
2022/05/28 06:31:04;;;;;;;24.27;7.57;;;22.80;61.60;;;;;;4996143;28;20464;-48
2022/05/28 06:33:30;;;;;;;22.25;7.03;;;22.80;61.60;;;;;;4996724;28;20034;-45
2022/05/28 06:35:57;;;;;;;19.38;6.63;;;22.80;61.60;;;;;;4996980;28;20031;-51
2022/05/28 06:38:23;;;;;;;21.15;6.45;;;22.80;61.70;;;;;;4997184;28;20068;-46
2022/05/28 06:40:50;;;;;;;19.13;6.47;;;22.80;61.70;;;;;;4995738;28;20062;-46
2022/05/28 06:43:16;;;;;;;20.35;7.15;;;22.80;61.70;;;;;;4997613;28;20038;-46
2022/05/28 06:45:42;;;;;;;19.77;6.10;;;22.80;61.70;;;;;;4997422;28;20050;-45
2022/05/28 06:48:08;;;;;;;20.13;6.40;;;22.70;61.60;;;;;;4997387;28;20101;-49
2022/05/28 06:53:20;;;;;;;22.02;6.25;;;22.70;61.70;;;;;;4998993;28;20609;-44
2022/05/28 06:55:47;;;;;;;17.30;5.03;;;22.70;61.60;;;;;;4975350;28;20041;-46
2022/05/28 06:58:13;;;;;;;15.20;5.95;;;22.70;61.70;;;;;;5029496;28;20044;-46
2022/05/28 07:00:39;;;;;;;14.75;5.90;;;22.70;61.70;;;;;;5069044;28;20040;-43
2022/05/28 07:03:06;;;;;;;16.38;5.57;;;22.70;61.70;;;;;;5072095;28;20039;-48
2022/05/28 07:05:32;;;;;;;13.00;5.20;;;22.70;61.70;;;;;;5072834;28;20044;-44
2022/05/28 07:07:58;;;;;;;12.25;4.80;;;22.70;61.70;;;;;;5075388;28;20174;-48
2022/05/28 07:10:24;;;;;;;18.25;5.72;;;22.70;61.80;;;;;;5074992;28;20497;-43
2022/05/28 07:12:50;;;;;;;13.98;5.00;;;22.60;61.70;;;;;;5076407;28;20043;-44
2022/05/28 07:15:17;;;;;;;12.48;4.55;;;22.70;61.70;;;;;;5076093;28;20059;-44
2022/05/28 07:17:43;;;;;;;13.35;4.47;;;22.60;61.70;;;;;;5072061;28;20493;-46
2022/05/28 07:20:10;;;;;;;11.70;4.65;;;22.60;61.70;;;;;;5075110;28;20112;-46
2022/05/28 07:22:36;;;;;;;12.02;4.70;;;22.60;61.70;;;;;;5074745;28;20036;-45
2022/05/28 07:25:03;;;;;;;14.50;4.78;;;22.60;61.70;;;;;;5076381;28;20043;-46
2022/05/28 07:27:29;;;;;;;12.38;4.32;;;22.60;61.70;;;;;;5078045;28;20066;-44
2022/05/28 07:29:55;;;;;;;10.98;4.63;;;22.60;61.70;;;;;;5077306;28;20033;-45
2022/05/28 07:32:24;;;;;;;12.13;4.20;;;22.60;61.70;;;;;;5074924;28;20040;-45
2022/05/28 07:34:51;;;;;;;10.75;3.80;;;22.60;61.80;;;;;;5083924;28;20033;-46
2022/05/28 07:37:18;;;;;;;10.10;3.80;;;22.50;61.70;;;;;;5080650;28;20032;-46
2022/05/28 07:39:44;;;;;;;10.45;3.97;;;22.60;61.70;;;;;;5078042;28;20055;-44
2022/05/28 07:42:10;;;;;;;8.95;3.55;;;22.50;61.70;;;;;;5076971;28;20025;-44
2022/05/28 07:44:36;;;;;;;10.40;3.40;;;22.50;61.60;;;;;;5068008;28;20064;-46
2022/05/28 07:47:06;;;;;;;9.40;3.20;;;22.50;61.70;;;;;;5066833;28;20077;-46
2022/05/28 07:49:34;;;;;;;9.85;3.80;;;22.50;61.70;;;;;;5065532;28;20055;-45
2022/05/28 07:52:00;;;;;;;13.82;3.08;;;22.50;61.70;;;;;;5079864;28;20024;-46
2022/05/28 07:54:26;;;;;;;8.63;3.38;;;22.50;61.70;;;;;;5076044;28;20029;-44
2022/05/28 07:56:52;;;;;;;7.15;3.20;;;22.50;61.80;;;;;;5077155;28;20025;-44
2022/05/28 07:59:19;;;;;;;7.53;3.15;;;22.50;61.80;;;;;;5075353;28;20044;-44
2022/05/28 08:01:45;;;;;;;10.95;3.55;;;22.50;61.80;;;;;;5070237;28;20115;-46
2022/05/28 08:04:11;;;;;;;7.63;3.30;;;22.40;61.90;;;;;;5070151;28;20062;-45
2022/05/28 08:06:38;;;;;;;7.65;3.10;;;22.40;61.80;;;;;;5064831;28;20033;-48
2022/05/28 08:09:05;;;;;;;6.97;3.00;;;22.40;61.90;;;;;;5080246;28;20028;-44
2022/05/28 08:11:31;;;;;;;5.00;2.72;;;22.40;61.80;;;;;;5069384;28;20347;-44
2022/05/28 08:13:57;;;;;;;7.60;3.03;;;22.40;61.90;;;;;;5077965;28;20028;-42
2022/05/28 08:16:23;;;;;;;8.57;3.05;;;22.40;61.90;;;;;;5073548;28;20089;-44
2022/05/28 08:18:49;;;;;;;8.35;3.22;;;22.40;61.80;;;;;;5070772;28;20045;-45
2022/05/28 08:24:00;;;;;;;7.78;2.42;;;22.30;61.90;;;;;;5084853;28;20028;-44
2022/05/28 08:26:26;;;;;;;5.18;2.65;;;22.30;61.90;;;;;;5078391;28;20028;-47
2022/05/28 08:28:53;;;;;;;5.55;2.60;;;22.30;61.90;;;;;;5064742;28;20033;-44
2022/05/28 08:31:20;;;;;;;7.07;2.67;;;22.30;61.90;;;;;;5064030;28;20453;-48
2022/05/28 08:33:46;;;;;;;5.53;2.70;;;22.30;61.90;;;;;;5066301;28;20045;-43
2022/05/28 08:36:12;;;;;;;6.07;2.38;;;22.30;61.90;;;;;;5073335;28;20317;-43
2022/05/28 08:38:39;;;;;;;5.80;2.45;;;22.30;61.90;;;;;;5084075;28;20037;-45
2022/05/28 08:41:15;;;;;;;6.65;2.38;;;22.30;62.00;;;;;;5083061;28;20068;-42
2022/05/28 08:43:54;;;;;;;5.57;2.72;;;22.20;62.00;;;;;;5079278;28;20177;-42
2022/05/28 08:46:20;;;;;;;4.22;2.05;;;22.20;62.00;;;;;;5071444;28;20801;-42
2022/05/28 08:48:48;;;;;;;6.13;2.45;;;22.20;61.90;;;;;;5055776;28;20048;-44
2022/05/28 08:51:38;;;;;;;5.38;2.53;;;22.20;62.00;;;;;;5076914;28;20554;-45
2022/05/28 08:54:10;;;;;;;6.20;2.30;;;22.20;62.10;;;;;;5063036;28;20024;-47
2022/05/28 08:56:37;;;;;;;5.35;2.35;;;22.20;62.10;;;;;;5074620;28;20088;-43
2022/05/28 08:59:14;;;;;;;5.47;2.30;;;22.10;62.00;;;;;;5058241;28;20144;-43
2022/05/28 09:01:40;;;;;;;3.78;2.00;;;22.10;62.10;;;;;;5039608;28;20044;-47
2022/05/28 09:04:15;;;;;;;7.07;2.13;;;22.10;62.80;;;;;;5054962;28;20033;-44
2022/05/28 09:06:51;;;;;;;4.20;2.00;;;22.10;62.10;;;;;;5075016;28;20054;-45
2022/05/28 09:09:17;;;;;;;4.03;1.95;;;22.10;62.20;;;;;;5075829;28;20039;-44
2022/05/28 09:11:46;;;;;;;3.42;2.00;;;22.10;62.80;;;;;;5073838;28;20038;-45
2022/05/28 09:14:29;;;;;;;3.85;2.00;;;22.10;62.20;;;;;;5076282;28;20109;-45
2022/05/28 09:16:59;;;;;;;3.95;1.80;;;22.10;62.20;;;;;;5070523;28;20044;-44
2022/05/28 09:19:42;;;;;;;3.35;1.70;;;22.10;62.20;;;;;;5076125;28;20052;-45
2022/05/28 09:22:08;;;;;;;4.22;1.83;;;22.00;62.20;;;;;;5059926;28;20027;-43
2022/05/28 09:24:34;;;;;;;5.85;1.98;;;22.00;62.30;;;;;;5070974;28;20037;-43
2022/05/28 09:27:22;;;;;;;3.88;1.80;;;22.00;62.20;;;;;;5050013;28;20027;-43
2022/05/28 09:30:12;;;;;;;3.03;1.57;;;22.00;62.20;;;;;;5075478;28;20029;-45
2022/05/28 09:33:00;;;;;;;3.47;1.70;;;22.00;62.30;;;;;;5073819;28;20025;-48
2022/05/28 09:35:57;;;;;;;3.55;1.83;;;22.00;62.30;;;;;;5050125;28;20067;-42
2022/05/28 09:38:38;;;;;;;4.35;1.83;;;22.00;62.30;;;;;;5088079;28;20051;-42
2022/05/28 09:41:16;;;;;;;3.10;1.58;;;21.90;62.40;;;;;;5083685;28;20572;-43
2022/05/28 09:44:42;;;;;;;2.65;1.70;;;21.90;62.40;;;;;;5070768;28;20048;-43
2022/05/28 09:47:09;;;;;;;3.70;1.70;;;21.90;62.40;;;;;;5008106;28;20164;-43
2022/05/28 09:49:44;;;;;;;4.38;1.52;;;21.90;62.50;;;;;;5024296;28;20033;-42
2022/05/28 09:52:12;;;;;;;2.83;1.48;;;21.90;62.50;;;;;;5020724;28;20060;-42
2022/05/28 09:54:38;;;;;;;2.50;1.50;;;21.80;62.50;;;;;;5023136;28;20036;-43
2022/05/28 09:57:10;;;;;;;2.50;1.33;;;21.80;62.50;;;;;;5013859;28;20077;-41
2022/05/28 09:59:49;;;;;;;3.45;1.48;;;21.80;62.60;;;;;;5015731;28;20065;-43
2022/05/28 10:02:39;;;;;;;3.20;1.48;;;21.80;62.60;;;;;;5013738;28;20048;-43
2022/05/28 10:05:16;;;;;;;3.15;1.40;;;21.80;62.60;;;;;;5013562;28;20040;-44
2022/05/28 10:07:47;;;;;;;2.45;1.73;;;21.80;62.70;;;;;;5014222;28;20104;-43
2022/05/28 10:10:23;;;;;;;2.70;1.58;;;21.80;62.80;;;;;;5013239;28;20101;-43
2022/05/28 10:12:50;;;;;;;1.85;1.25;;;21.80;62.80;;;;;;5013021;28;20077;-44
2022/05/28 10:15:19;;;;;;;1.83;1.30;;;21.70;62.80;;;;;;5013115;28;20157;-42
2022/05/28 10:17:56;;;;;;;2.88;1.30;;;21.70;62.80;;;;;;5012969;28;20037;-42
2022/05/28 10:20:23;;;;;;;2.33;1.30;;;21.70;62.80;;;;;;5008483;28;20061;-43
2022/05/28 10:22:50;;;;;;;2.05;1.42;;;21.70;62.90;;;;;;5054921;28;20044;-44
2022/05/28 10:25:48;;;;;;;2.22;1.40;;;21.70;62.90;;;;;;5040289;28;20025;-42
2022/05/28 10:28:35;;;;;;;2.45;1.35;;;21.70;62.90;;;;;;5057877;28;20040;-45
2022/05/28 10:31:01;;;;;;;1.92;1.13;;;21.70;63.00;;;;;;5049376;28;20088;-43
2022/05/28 10:33:30;;;;;;;3.20;0.95;;;21.70;63.00;;;;;;5063454;28;20037;-43
2022/05/28 10:36:07;;;;;;;2.72;1.30;;;21.60;62.90;;;;;;5074442;28;20025;-43
2022/05/28 10:38:33;;;;;;;1.40;1.00;;;21.60;63.00;;;;;;5071954;28;20056;-45
2022/05/28 10:41:01;;;;;;;2.33;1.27;;;21.60;63.00;;;;;;5060817;28;20096;-41
2022/05/28 10:43:32;;;;;;;2.95;1.42;;;21.60;63.00;;;;;;5081539;28;20021;-43
2022/05/28 10:46:02;;;;;;;2.13;1.10;;;21.60;63.10;;;;;;5078376;28;20566;-44
2022/05/28 10:48:35;;;;;;;1.48;1.00;;;21.60;63.20;;;;;;5077760;28;20041;-43
2022/05/28 10:51:15;;;;;;;2.33;1.20;;;21.60;63.20;;;;;;5078486;28;20080;-42
2022/05/28 10:54:10;;;;;;;3.83;1.33;;;21.60;63.20;;;;;;5060751;28;20105;-41
2022/05/28 10:57:12;;;;;;;1.88;1.13;;;21.60;63.20;;;;;;5061716;28;20028;-42
2022/05/28 11:00:00;;;;;;;1.98;1.20;;;21.50;63.20;;;;;;5056147;28;20497;-42
2022/05/28 11:02:41;;;;;;;1.27;1.00;;;21.50;63.30;;;;;;5075634;28;20048;-43
2022/05/28 11:05:20;;;;;;;2.08;0.95;;;21.50;64.10;;;;;;5075273;28;20162;-42
2022/05/28 11:08:13;;;;;;;1.38;1.05;;;21.50;63.30;;;;;;5042412;28;20056;-43
2022/05/28 11:11:01;;;;;;;2.30;1.10;;;21.50;63.30;;;;;;5072652;28;20036;-43
2022/05/28 11:13:30;;;;;;;1.75;1.10;;;21.50;63.40;;;;;;5074722;28;20039;-41
2022/05/28 11:16:14;;;;;;;2.50;1.10;;;21.50;63.40;;;;;;5074936;28;20028;-43
2022/05/28 11:19:02;;;;;;;1.23;0.93;;;21.50;63.40;;;;;;5073961;28;20053;-42
2022/05/28 11:21:53;;;;;;;1.73;0.93;;;21.40;63.30;;;;;;5073221;28;20052;-44
2022/05/28 11:24:31;;;;;;;3.20;1.17;;;21.40;63.40;;;;;;5076304;28;20063;-41
2022/05/28 11:27:16;;;;;;;1.60;0.90;;;21.40;63.40;;;;;;5079065;28;20040;-42
2022/05/28 11:30:19;;;;;;;1.15;0.90;;;21.40;63.50;;;;;;5080474;28;20424;-43
2022/05/28 11:33:05;;;;;;;1.20;0.82;;;21.40;63.50;;;;;;5082383;28;20489;-43
2022/05/28 11:35:58;;;;;;;0.98;0.88;;;21.40;63.60;;;;;;5061424;28;20092;-40
2022/05/28 11:38:50;;;;;;;2.08;0.90;;;21.30;63.60;;;;;;5049366;28;20045;-43
2022/05/28 11:41:21;;;;;;;1.42;1.08;;;21.30;63.60;;;;;;5081576;28;20032;-42
2022/05/28 11:43:47;;;;;;;1.45;1.05;;;21.30;63.60;;;;;;5082264;28;20036;-41
2022/05/28 11:46:18;;;;;;;1.17;0.90;;;21.30;63.70;;;;;;5081447;28;20065;-41
2022/05/28 11:52:02;;;;;;;1.30;0.88;;;21.30;63.80;;;;;;5081134;28;20109;-42
2022/05/28 11:54:42;;;;;;;1.88;0.90;;;21.30;63.80;;;;;;5078244;28;20033;-41
2022/05/28 11:57:21;;;;;;;1.17;0.75;;;21.20;63.80;;;;;;5063738;28;20031;-42
2022/05/28 11:59:47;;;;;;;1.52;1.00;;;21.20;63.80;;;;;;5077717;28;20086;-41
2022/05/28 12:02:18;;;;;;;1.80;0.90;;;21.20;63.80;;;;;;5064271;28;20029;-41
2022/05/28 12:04:44;;;;;;;1.25;0.95;;;21.20;63.80;;;;;;5065162;28;20096;-42
2022/05/28 12:07:15;;;;;;;1.63;0.93;;;21.20;63.80;;;;;;5082325;28;20028;-43
2022/05/28 12:09:44;;;;;;;1.17;0.70;;;21.20;63.80;;;;;;5047309;28;20037;-42
2022/05/28 12:12:36;;;;;;;1.00;0.90;;;21.20;63.80;;;;;;5046929;28;20021;-43
2022/05/28 12:15:15;;;;;;;1.45;0.80;;;21.20;63.80;;;;;;5063379;28;20110;-43
2022/05/28 12:17:42;;;;;;;1.50;0.80;;;21.20;63.90;;;;;;5080400;28;20063;-43
2022/05/28 12:20:10;;;;;;;1.08;0.70;;;21.20;63.90;;;;;;5064233;28;20067;-42
2022/05/28 12:22:53;;;;;;;1.10;0.63;;;21.10;63.90;;;;;;5078346;28;20058;-46
2022/05/28 12:25:35;;;;;;;1.40;0.77;;;21.10;64.00;;;;;;5080779;28;20036;-43
2022/05/28 12:28:08;;;;;;;0.82;0.75;;;21.10;64.00;;;;;;5080954;28;20690;-43
2022/05/28 12:30:39;;;;;;;0.93;0.70;;;21.10;64.00;;;;;;5079967;28;20036;-43
2022/05/28 12:33:17;;;;;;;1.45;0.80;;;21.10;64.10;;;;;;5078586;28;20028;-44
2022/05/28 12:36:02;;;;;;;0.85;0.70;;;21.10;64.10;;;;;;5081368;28;20784;-43
2022/05/28 12:38:50;;;;;;;1.40;0.80;;;21.10;65.00;;;;;;5080815;28;20096;-45
2022/05/28 12:41:21;;;;;;;0.73;0.70;;;21.10;64.30;;;;;;5080404;28;20046;-45
2022/05/28 12:43:58;;;;;;;1.90;1.05;;;21.10;64.40;;;;;;5060607;28;20075;-43
2022/05/28 12:46:59;;;;;;;1.23;0.90;;;21.10;64.50;;;;;;5047399;28;20078;-42
2022/05/28 12:49:44;;;;;;;1.42;0.77;;;21.10;64.50;;;;;;5077062;28;20028;-43
2022/05/28 12:52:32;;;;;;;1.52;0.90;;;21.10;64.60;;;;;;5081100;28;20035;-40
2022/05/28 12:55:35;;;;;;;1.38;0.80;;;21.00;64.60;;;;;;5061966;28;20025;-44
2022/05/28 12:58:10;;;;;;;1.10;0.80;;;21.00;64.70;;;;;;5081450;28;20024;-44
2022/05/28 13:00:54;;;;;;;1.00;0.82;;;21.00;64.70;;;;;;5081103;28;20119;-43
2022/05/28 13:03:22;;;;;;;1.08;0.80;;;21.00;65.00;;;;;;5062671;28;20048;-49
2022/05/28 13:05:53;;;;;;;1.10;0.75;;;21.00;65.00;;;;;;5047294;28;20097;-44
2022/05/28 13:08:23;;;;;;;0.73;0.68;;;21.00;65.00;;;;;;5047878;28;20033;-45
2022/05/28 13:10:57;;;;;;;2.13;1.20;;;21.00;65.10;;;;;;5059733;28;20028;-43
2022/05/28 13:13:52;;;;;;;1.23;0.80;;;21.00;65.20;;;;;;5079261;28;20037;-42
2022/05/28 13:16:27;;;;;;;1.00;0.90;;;21.10;65.30;;;;;;5081307;28;20020;-44
2022/05/28 13:19:15;;;;;;;1.25;0.93;;;21.10;65.70;;;;;;5055886;28;20057;-41
2022/05/28 13:21:59;;;;;;;1.50;0.90;;;21.10;65.40;;;;;;5078164;28;20039;-39
2022/05/28 13:24:56;;;;;;;1.33;1.00;;;21.10;65.50;;;;;;5078217;28;20040;-38
2022/05/28 13:27:22;;;;;;;2.35;0.70;;;21.10;65.40;;;;;;5083010;28;20041;-41
2022/05/28 13:29:57;;;;;;;0.93;0.70;;;21.10;65.40;;;;;;5082148;28;20028;-39
2022/05/28 13:32:29;;;;;;;6.72;0.90;;;21.10;65.40;;;;;;5082487;28;20556;-38
2022/05/28 13:35:03;;;;;;;6.47;0.88;;;21.10;65.50;;;;;;5081945;28;20096;-39
2022/05/28 13:37:29;;;;;;;5.03;0.88;;;21.10;65.30;;;;;;5084130;28;20032;-39
2022/05/28 13:39:56;;;;;;;0.85;0.80;;;21.10;65.20;;;;;;5090348;28;20153;-41
2022/05/28 13:42:23;;;;;;;1.67;0.73;;;21.10;65.20;;;;;;5069323;28;20028;-41
2022/05/28 13:44:50;;;;;;;1.88;0.88;;;21.10;64.90;;;;;;5082590;28;20055;-41
2022/05/28 13:47:16;;;;;;;1.95;0.85;;;21.10;64.60;;;;;;5072852;28;20024;-40
2022/05/28 13:49:52;;;;;;;1.15;0.88;;;21.10;64.40;;;;;;5053262;28;20040;-41
2022/05/28 13:52:18;;;;;;;1.23;0.80;;;21.20;64.50;;;;;;5066644;28;20071;-41
2022/05/28 13:55:03;;;;;;;1.08;0.90;;;21.20;64.60;;;;;;5076976;28;20021;-45